createdAt,value
2018-04-26T00:01:04.296Z,6.03
2018-04-26T00:03:31.718Z,5.80
2018-04-26T00:05:59.154Z,5.97
2018-04-26T00:08:26.737Z,5.50
2018-04-26T00:10:54.158Z,5.13
2018-04-26T00:13:21.658Z,5.37
2018-04-26T00:15:49.077Z,5.93
2018-04-26T00:18:16.570Z,5.67
2018-04-26T00:20:43.998Z,6.37
2018-04-26T00:23:11.425Z,5.17
2018-04-26T00:25:38.855Z,6.17
2018-04-26T00:28:06.410Z,5.80
2018-04-26T00:30:34.030Z,5.77
2018-04-26T00:33:01.459Z,6.30
2018-04-26T00:35:29.646Z,5.37
2018-04-26T00:37:57.081Z,6.20
2018-04-26T00:40:24.592Z,5.30
2018-04-26T00:42:52.016Z,6.60
2018-04-26T00:45:19.511Z,5.50
2018-04-26T00:47:46.989Z,6.20
2018-04-26T00:50:14.728Z,5.50
2018-04-26T00:52:42.146Z,6.60
2018-04-26T00:55:09.642Z,6.53
2018-04-26T00:57:37.094Z,5.60
2018-04-26T01:00:04.549Z,7.23
2018-04-26T01:02:31.964Z,5.90
2018-04-26T01:04:59.385Z,6.83
2018-04-26T01:07:26.935Z,5.97
2018-04-26T01:09:54.350Z,5.83
2018-04-26T01:12:21.769Z,6.20
2018-04-26T01:14:49.197Z,6.50
2018-04-26T01:17:16.609Z,5.50
2018-04-26T01:19:44.814Z,5.50
2018-04-26T01:22:12.235Z,6.00
2018-04-26T01:24:39.725Z,6.70
2018-04-26T01:27:07.146Z,6.40
2018-04-26T01:29:34.565Z,6.00
2018-04-26T01:32:02.134Z,6.00
2018-04-26T01:34:29.871Z,5.53
2018-04-26T01:37:08.998Z,7.00
2018-04-26T01:39:36.414Z,5.77
2018-04-26T01:42:03.905Z,5.77
2018-04-26T01:44:31.319Z,6.33
2018-04-26T01:46:58.818Z,5.43
2018-04-26T01:49:26.267Z,6.10
2018-04-26T01:51:53.697Z,6.03
2018-04-26T01:54:21.113Z,5.60
2018-04-26T01:56:48.651Z,6.60
2018-04-26T01:59:16.259Z,5.70
2018-04-26T02:01:44.479Z,6.50
2018-04-26T02:04:11.887Z,5.30
2018-04-26T02:06:39.388Z,5.50
2018-04-26T02:09:06.810Z,5.50
2018-04-26T02:11:34.234Z,7.10
2018-04-26T02:14:01.659Z,6.40
2018-04-26T02:16:29.130Z,6.50
2018-04-26T02:18:56.667Z,6.00
2018-04-26T02:21:24.098Z,5.40
2018-04-26T02:23:51.522Z,6.40
2018-04-26T02:26:18.952Z,5.37
2018-04-26T02:28:46.402Z,5.90
2018-04-26T02:31:13.828Z,5.67
2018-04-26T02:33:41.318Z,6.03
2018-04-26T02:36:08.767Z,4.70
2018-04-26T02:38:36.202Z,7.03
2018-04-26T02:41:03.775Z,5.13
2018-04-26T02:43:31.205Z,5.60
2018-04-26T02:45:58.693Z,6.37
2018-04-26T02:48:26.153Z,5.33
2018-04-26T02:50:53.617Z,4.80
2018-04-26T02:53:21.170Z,4.80
2018-04-26T02:55:48.685Z,5.63
2018-04-26T02:58:16.902Z,5.00
2018-04-26T03:00:44.356Z,4.37
2018-04-26T03:03:11.803Z,4.20
2018-04-26T03:05:39.233Z,4.57
2018-04-26T03:08:06.668Z,5.50
2018-04-26T03:10:34.177Z,4.73
2018-04-26T03:13:01.605Z,5.20
2018-04-26T03:15:29.083Z,3.80
2018-04-26T03:17:56.513Z,3.80
2018-04-26T03:20:23.942Z,3.30
2018-04-26T03:22:51.361Z,4.63
2018-04-26T03:25:18.909Z,3.50
2018-04-26T03:27:46.351Z,9.37
2018-04-26T03:30:13.821Z,3.93
2018-04-26T03:32:41.242Z,4.67
2018-04-26T03:35:08.681Z,4.13
2018-04-26T03:37:36.190Z,4.17
2018-04-26T03:40:03.646Z,3.87
2018-04-26T03:42:31.062Z,3.67
2018-04-26T03:44:58.564Z,4.30
2018-04-26T03:47:25.994Z,3.80
2018-04-26T03:49:53.470Z,3.93
2018-04-26T03:52:20.901Z,2.77
2018-04-26T03:54:48.381Z,4.20
2018-04-26T03:57:15.810Z,3.50
2018-04-26T03:59:55.093Z,3.70
2018-04-26T04:02:34.386Z,3.60
2018-04-26T04:05:26.761Z,3.77
2018-04-26T04:07:54.510Z,3.20
2018-04-26T04:10:21.974Z,4.27
2018-04-26T04:12:49.475Z,4.00
2018-04-26T04:15:17.185Z,3.97
2018-04-26T04:17:44.615Z,3.90
2018-04-26T04:20:12.099Z,3.23
2018-04-26T04:22:39.535Z,3.77
2018-04-26T04:25:07.310Z,3.90
2018-04-26T04:27:34.771Z,3.53
2018-04-26T04:30:02.234Z,3.13
2018-04-26T04:32:29.697Z,4.73
2018-04-26T04:34:57.183Z,3.17
2018-04-26T04:37:24.595Z,3.00
2018-04-26T04:39:52.017Z,3.33
2018-04-26T04:42:19.450Z,3.77
2018-04-26T04:44:46.964Z,3.20
2018-04-26T04:47:14.431Z,4.07
2018-04-26T04:49:41.845Z,3.10
2018-04-26T04:52:09.346Z,3.93
2018-04-26T04:54:36.854Z,3.70
2018-04-26T04:57:04.549Z,3.43
2018-04-26T04:59:31.974Z,3.87
2018-04-26T05:01:59.417Z,4.57
2018-04-26T05:04:26.925Z,3.60
2018-04-26T05:06:54.378Z,3.10
2018-04-26T05:09:21.805Z,5.50
2018-04-26T05:11:49.282Z,3.67
2018-04-26T05:14:16.688Z,3.80
2018-04-26T05:16:44.113Z,3.60
2018-04-26T05:19:11.574Z,3.70
2018-04-26T05:21:39.001Z,3.43
2018-04-26T05:24:06.498Z,3.60
2018-04-26T05:26:34.031Z,3.90
2018-04-26T05:29:01.486Z,3.70
2018-04-26T05:31:28.906Z,4.13
2018-04-26T05:33:57.333Z,3.47
2018-04-26T05:36:25.633Z,2.87
2018-04-26T05:38:53.062Z,3.87
2018-04-26T05:41:20.514Z,3.67
2018-04-26T05:43:47.943Z,3.60
2018-04-26T05:46:15.398Z,3.77
2018-04-26T05:48:42.894Z,3.30
2018-04-26T05:51:10.346Z,3.40
2018-04-26T05:53:37.767Z,4.00
2018-04-26T05:56:05.292Z,3.60
2018-04-26T05:58:32.744Z,3.80
2018-04-26T06:01:00.920Z,3.50
2018-04-26T06:03:28.713Z,4.13
2018-04-26T06:05:56.073Z,4.13
2018-04-26T06:08:23.498Z,4.33
2018-04-26T06:10:50.997Z,4.27
2018-04-26T06:13:18.439Z,4.30
2018-04-26T06:15:45.873Z,4.30
2018-04-26T06:18:13.377Z,4.20
2018-04-26T06:20:40.835Z,4.77
2018-04-26T06:23:08.305Z,4.30
2018-04-26T06:25:35.729Z,4.90
2018-04-26T06:28:03.152Z,3.50
2018-04-26T06:30:30.582Z,4.30
2018-04-26T06:32:58.101Z,3.60
2018-04-26T06:35:25.573Z,4.43
2018-04-26T06:37:53.197Z,4.83
2018-04-26T06:40:20.801Z,4.40
2018-04-26T06:42:48.558Z,3.80
2018-04-26T06:45:15.990Z,4.07
2018-04-26T06:47:43.423Z,3.40
2018-04-26T06:50:10.925Z,4.00
2018-04-26T06:52:38.355Z,3.70
2018-04-26T06:55:05.793Z,4.13
2018-04-26T06:57:34.213Z,2.90
2018-04-26T07:00:01.636Z,3.30
2018-04-26T07:02:29.127Z,2.87
2018-04-26T07:04:56.680Z,4.60
2018-04-26T07:07:24.249Z,3.00
2018-04-26T07:09:51.706Z,2.60
2018-04-26T07:12:19.164Z,3.50
2018-04-26T07:14:46.616Z,3.30
2018-04-26T07:17:14.169Z,2.90
2018-04-26T07:19:41.584Z,2.40
2018-04-26T07:22:09.014Z,3.40
2018-04-26T07:24:36.447Z,3.03
2018-04-26T07:27:03.999Z,3.07
2018-04-26T07:29:31.486Z,2.20
2018-04-26T07:31:58.886Z,2.40
2018-04-26T07:34:26.305Z,3.00
2018-04-26T07:36:53.819Z,3.10
2018-04-26T07:39:21.270Z,2.37
2018-04-26T07:41:48.703Z,2.50
2018-04-26T07:44:16.192Z,2.70
2018-04-26T07:46:43.629Z,2.57
2018-04-26T07:49:11.045Z,2.90
2018-04-26T07:51:38.466Z,2.57
2018-04-26T07:54:05.908Z,2.20
2018-04-26T07:56:33.466Z,2.30
2018-04-26T07:59:00.920Z,3.00
2018-04-26T08:01:28.413Z,2.60
2018-04-26T08:03:55.777Z,2.00
2018-04-26T08:06:23.219Z,2.00
2018-04-26T08:08:50.757Z,1.87
2018-04-26T08:11:18.534Z,2.57
2018-04-26T08:13:46.162Z,2.00
2018-04-26T08:16:13.611Z,2.10
2018-04-26T08:18:41.137Z,3.10
2018-04-26T08:21:08.562Z,2.60
2018-04-26T08:23:37.098Z,2.10
2018-04-26T08:26:04.449Z,2.10
2018-04-26T08:28:31.934Z,2.00
2018-04-26T08:30:59.370Z,1.97
2018-04-26T08:33:26.856Z,2.10
2018-04-26T08:35:54.299Z,2.17
2018-04-26T08:38:22.557Z,2.27
2018-04-26T08:40:50.060Z,2.33
2018-04-26T08:43:17.607Z,2.17
2018-04-26T08:45:45.355Z,2.73
2018-04-26T08:48:12.785Z,2.20
2018-04-26T08:50:40.270Z,2.30
2018-04-26T08:53:07.698Z,2.00
2018-04-26T08:55:35.186Z,2.33
2018-04-26T08:58:02.600Z,2.53
2018-04-26T09:00:30.091Z,2.23
2018-04-26T09:02:57.508Z,1.60
2018-04-26T09:05:24.938Z,2.20
2018-04-26T09:07:52.468Z,1.57
2018-04-26T09:10:19.915Z,1.60
2018-04-26T09:12:47.334Z,2.13
2018-04-26T09:15:14.756Z,2.70
2018-04-26T09:17:43.118Z,2.10
2018-04-26T09:20:10.553Z,1.70
2018-04-26T09:22:37.983Z,2.30
2018-04-26T09:25:06.182Z,3.00
2018-04-26T09:27:33.598Z,2.30
2018-04-26T09:30:01.156Z,2.47
2018-04-26T09:32:28.561Z,2.23
2018-04-26T09:34:55.994Z,2.67
2018-04-26T09:37:23.409Z,2.47
2018-04-26T09:39:50.928Z,2.23
2018-04-26T09:42:18.390Z,2.43
2018-04-26T09:44:45.851Z,1.73
2018-04-26T09:47:13.482Z,2.67
2018-04-26T09:49:40.946Z,2.17
2018-04-26T09:52:08.517Z,2.30
2018-04-26T09:54:35.970Z,2.10
2018-04-26T09:57:03.501Z,2.50
2018-04-26T09:59:30.916Z,2.53
2018-04-26T10:02:02.650Z,2.20
2018-04-26T10:04:44.943Z,2.00
2018-04-26T10:07:12.483Z,2.57
2018-04-26T10:09:39.933Z,2.40
2018-04-26T10:12:07.521Z,2.20
2018-04-26T10:14:34.938Z,2.10
2018-04-26T10:17:02.406Z,2.03
2018-04-26T10:19:29.785Z,2.07
2018-04-26T10:21:57.252Z,2.07
2018-04-26T10:24:24.666Z,1.90
2018-04-26T10:26:52.254Z,1.70
2018-04-26T10:29:19.705Z,1.93
2018-04-26T10:31:47.138Z,2.37
2018-04-26T10:34:14.584Z,2.03
2018-04-26T10:36:42.089Z,2.47
2018-04-26T10:39:09.501Z,2.07
2018-04-26T10:41:37.003Z,2.00
2018-04-26T10:44:04.426Z,1.80
2018-04-26T10:46:31.858Z,1.60
2018-04-26T10:48:59.273Z,1.90
2018-04-26T10:51:26.814Z,1.70
2018-04-26T10:53:54.253Z,2.20
2018-04-26T10:56:21.731Z,1.90
2018-04-26T10:58:49.197Z,2.17
2018-04-26T11:01:16.610Z,2.37
2018-04-26T11:03:44.102Z,2.03
2018-04-26T11:06:11.530Z,1.60
2018-04-26T11:08:38.993Z,2.53
2018-04-26T11:11:07.074Z,2.73
2018-04-26T11:13:34.540Z,2.03
2018-04-26T11:16:01.998Z,2.00
2018-04-26T11:18:29.456Z,1.80
2018-04-26T11:20:56.911Z,1.60
2018-04-26T11:23:24.337Z,2.40
2018-04-26T11:25:51.757Z,2.10
2018-04-26T11:28:19.194Z,2.50
2018-04-26T11:30:46.627Z,2.17
2018-04-26T11:33:14.137Z,1.63
2018-04-26T11:35:41.610Z,1.70
2018-04-26T11:38:09.035Z,1.63
2018-04-26T11:40:36.559Z,2.33
2018-04-26T11:43:03.969Z,2.37
2018-04-26T11:45:31.394Z,2.50
2018-04-26T11:47:58.825Z,3.33
2018-04-26T11:50:26.386Z,3.03
2018-04-26T11:52:53.846Z,2.70
2018-04-26T11:55:21.343Z,3.00
2018-04-26T11:57:48.753Z,1.87
2018-04-26T12:00:16.174Z,1.87
2018-04-26T12:02:43.720Z,2.30
2018-04-26T12:05:11.125Z,2.43
2018-04-26T12:07:38.557Z,2.20
2018-04-26T12:10:05.958Z,2.20
2018-04-26T12:12:33.487Z,2.33
2018-04-26T12:15:00.958Z,2.20
2018-04-26T12:17:28.361Z,1.60
2018-04-26T12:19:55.807Z,2.00
2018-04-26T12:22:23.315Z,1.80
2018-04-26T12:24:50.783Z,1.70
2018-04-26T12:27:18.408Z,2.27
2018-04-26T12:29:46.602Z,2.07
2018-04-26T12:32:14.012Z,1.50
2018-04-26T12:34:41.522Z,1.77
2018-04-26T12:37:08.975Z,1.80
2018-04-26T12:39:36.382Z,1.60
2018-04-26T12:42:03.870Z,1.63
2018-04-26T12:44:31.230Z,2.20
2018-04-26T12:46:58.632Z,1.80
2018-04-26T12:49:26.257Z,1.83
2018-04-26T12:51:53.697Z,1.83
2018-04-26T12:54:21.115Z,1.57
2018-04-26T12:56:48.548Z,1.90
2018-04-26T12:59:16.090Z,1.67
2018-04-26T13:01:43.501Z,2.00
2018-04-26T13:04:10.993Z,1.80
2018-04-26T13:06:38.419Z,1.90
2018-04-26T13:09:05.874Z,1.40
2018-04-26T13:11:33.357Z,1.57
2018-04-26T13:14:00.821Z,1.60
2018-04-26T13:16:28.246Z,1.67
2018-04-26T13:18:55.669Z,1.90
2018-04-26T13:21:23.207Z,1.90
2018-04-26T13:23:50.524Z,1.57
2018-04-26T13:26:18.110Z,1.60
2018-04-26T13:28:45.562Z,1.57
2018-04-26T13:31:12.974Z,1.43
2018-04-26T13:33:40.393Z,1.40
2018-04-26T13:36:07.918Z,1.70
2018-04-26T13:38:35.342Z,1.80
2018-04-26T13:41:02.750Z,1.40
2018-04-26T13:43:30.201Z,1.50
2018-04-26T13:45:57.687Z,1.90
2018-04-26T13:48:25.112Z,2.03
2018-04-26T13:50:52.673Z,1.83
2018-04-26T13:53:20.116Z,2.30
2018-04-26T13:55:47.525Z,2.03
2018-04-26T13:58:14.955Z,1.83
2018-04-26T14:00:42.474Z,2.03
2018-04-26T14:03:09.849Z,1.60
2018-04-26T14:05:37.288Z,2.17
2018-04-26T14:08:04.765Z,1.80
2018-04-26T14:10:32.186Z,1.67
2018-04-26T14:12:59.681Z,1.60
2018-04-26T14:15:27.222Z,2.00
2018-04-26T14:17:54.657Z,2.17
2018-04-26T14:20:22.100Z,1.83
2018-04-26T14:22:49.524Z,1.60
2018-04-26T14:25:16.945Z,1.70
2018-04-26T14:27:44.390Z,1.90
2018-04-26T14:30:11.955Z,1.57
2018-04-26T14:32:39.369Z,1.50
2018-04-26T14:35:06.811Z,1.40
2018-04-26T14:37:34.286Z,1.20
2018-04-26T14:40:01.787Z,1.60
2018-04-26T14:42:29.203Z,1.93
2018-04-26T14:44:56.740Z,1.70
2018-04-26T14:47:24.334Z,1.83
2018-04-26T14:49:51.931Z,1.40
2018-04-26T14:52:19.362Z,1.70
2018-04-26T14:54:46.794Z,2.27
2018-04-26T14:57:14.225Z,1.77
2018-04-26T14:59:41.651Z,1.83
2018-04-26T15:02:09.062Z,1.77
2018-04-26T15:04:37.257Z,1.87
2018-04-26T15:07:04.724Z,1.80
2018-04-26T15:09:32.149Z,1.97
2018-04-26T15:11:59.574Z,1.77
2018-04-26T15:14:27.070Z,1.80
2018-04-26T15:16:54.584Z,2.37
2018-04-26T15:19:22.016Z,1.57
2018-04-26T15:21:49.471Z,1.60
2018-04-26T15:24:16.918Z,2.77
2018-04-26T15:26:44.378Z,1.90
2018-04-26T15:29:11.791Z,1.80
2018-04-26T15:31:39.210Z,2.10
2018-04-26T15:34:06.670Z,1.90
2018-04-26T15:36:34.119Z,2.20
2018-04-26T15:39:01.662Z,2.00
2018-04-26T15:41:29.080Z,1.80
2018-04-26T15:43:56.490Z,1.90
2018-04-26T15:46:23.935Z,1.70
2018-04-26T15:48:51.494Z,1.70
2018-04-26T15:51:19.254Z,1.57
2018-04-26T15:53:58.533Z,1.40
2018-04-26T15:56:38.585Z,1.90
2018-04-26T15:59:17.890Z,1.53
2018-04-26T16:02:01.733Z,2.07
2018-04-26T16:04:41.013Z,1.90
2018-04-26T16:07:42.423Z,1.90
2018-04-26T16:10:21.707Z,2.20
2018-04-26T16:13:06.675Z,1.87
2018-04-26T16:15:51.582Z,1.83
2018-04-26T16:18:36.479Z,1.80
2018-04-26T16:21:22.090Z,2.00
2018-04-26T16:24:03.333Z,1.50
2018-04-26T16:29:52.318Z,2.30
2018-04-26T16:32:36.322Z,1.90
2018-04-26T16:35:20.318Z,2.90
2018-04-26T16:38:05.217Z,2.43
2018-04-26T16:40:32.673Z,2.33
2018-04-26T16:43:00.133Z,1.80
2018-04-26T16:45:27.526Z,2.70
2018-04-26T16:47:54.958Z,3.20
2018-04-26T16:50:22.411Z,1.97
2018-04-26T16:52:49.861Z,2.00
2018-04-26T16:55:18.206Z,1.97
2018-04-26T16:57:45.654Z,3.03
2018-04-26T17:00:13.250Z,1.80
2018-04-26T17:02:40.697Z,2.03
2018-04-26T17:05:08.145Z,2.37
2018-04-26T17:07:35.562Z,2.10
2018-04-26T17:10:03.063Z,1.90
2018-04-26T17:12:30.528Z,1.70
2018-04-26T17:14:58.775Z,2.47
2018-04-26T17:17:26.199Z,2.00
2018-04-26T17:19:53.626Z,2.03
2018-04-26T17:22:21.211Z,1.90
2018-04-26T17:24:48.727Z,2.17
2018-04-26T17:27:16.142Z,2.50
2018-04-26T17:29:44.326Z,1.83
2018-04-26T17:32:12.026Z,1.90
2018-04-26T17:34:39.502Z,2.20
2018-04-26T17:37:07.137Z,1.90
2018-04-26T17:39:34.556Z,2.73
2018-04-26T17:42:02.971Z,2.53
2018-04-26T17:44:30.469Z,2.33
2018-04-26T17:46:57.895Z,2.47
2018-04-26T17:49:25.316Z,1.90
2018-04-26T17:51:53.518Z,2.07
2018-04-26T17:54:20.966Z,2.40
2018-04-26T17:56:48.390Z,2.40
2018-04-26T17:59:15.797Z,2.20
2018-04-26T18:01:43.278Z,2.17
2018-04-26T18:04:10.692Z,2.27
2018-04-26T18:06:38.155Z,1.97
2018-04-26T18:09:05.642Z,2.20
2018-04-26T18:11:33.081Z,2.10
2018-04-26T18:14:00.556Z,1.73
2018-04-26T18:16:28.071Z,2.40
2018-04-26T18:18:55.493Z,2.20
2018-04-26T18:21:22.911Z,1.87
2018-04-26T18:23:50.360Z,1.97
2018-04-26T18:26:17.912Z,2.10
2018-04-26T18:28:45.631Z,2.60
2018-04-26T18:31:13.119Z,1.97
2018-04-26T18:33:40.557Z,2.17
2018-04-26T18:36:07.957Z,2.00
2018-04-26T18:38:36.246Z,2.47
2018-04-26T18:41:03.932Z,1.80
2018-04-26T18:43:31.355Z,1.87
2018-04-26T18:45:59.101Z,1.80
2018-04-26T18:48:26.841Z,1.77
2018-04-26T18:50:54.315Z,2.30
2018-04-26T18:53:22.582Z,3.00
2018-04-26T18:55:50.002Z,2.43
2018-04-26T18:58:17.449Z,2.40
2018-04-26T19:00:45.838Z,3.03
2018-04-26T19:03:13.249Z,2.17
2018-04-26T19:05:40.880Z,2.20
2018-04-26T19:08:08.301Z,2.50
2018-04-26T19:10:35.721Z,1.90
2018-04-26T19:13:03.153Z,2.00
2018-04-26T19:15:30.622Z,2.90
2018-04-26T19:17:58.093Z,2.07
2018-04-26T19:20:25.545Z,2.30
2018-04-26T19:22:53.074Z,2.13
2018-04-26T19:25:20.523Z,2.60
2018-04-26T19:27:47.981Z,2.60
2018-04-26T19:30:15.372Z,2.73
2018-04-26T19:32:42.907Z,2.70
2018-04-26T19:35:10.363Z,2.77
2018-04-26T19:37:37.894Z,2.63
2018-04-26T19:40:05.587Z,2.07
2018-04-26T19:42:33.010Z,2.10
2018-04-26T19:45:00.478Z,2.87
2018-04-26T19:47:27.896Z,2.80
2018-04-26T19:49:55.406Z,2.50
2018-04-26T19:52:23.167Z,2.63
2018-04-26T19:54:50.577Z,2.60
2018-04-26T19:57:19.012Z,2.43
2018-04-26T19:59:46.426Z,2.30
2018-04-26T20:02:13.916Z,2.00
2018-04-26T20:04:41.534Z,2.70
2018-04-26T20:07:09.742Z,2.30
2018-04-26T20:09:37.220Z,1.83
2018-04-26T20:12:04.842Z,3.03
2018-04-26T20:14:32.410Z,3.00
2018-04-26T20:16:59.882Z,2.93
2018-04-26T20:19:27.334Z,2.20
2018-04-26T20:21:54.748Z,2.90
2018-04-26T20:24:22.254Z,2.30
2018-04-26T20:26:49.693Z,2.57
2018-04-26T20:29:17.154Z,2.07
2018-04-26T20:31:44.573Z,2.37
2018-04-26T20:34:11.998Z,2.17
2018-04-26T20:36:39.525Z,2.70
2018-04-26T20:39:06.986Z,2.57
2018-04-26T20:41:46.105Z,2.50
2018-04-26T20:44:25.565Z,2.60
2018-04-26T20:46:52.966Z,2.60
2018-04-26T20:49:20.394Z,2.20
2018-04-26T20:51:47.919Z,2.50
2018-04-26T20:54:15.365Z,2.67
2018-04-26T20:56:42.822Z,2.30
2018-04-26T20:59:10.278Z,2.37
2018-04-26T21:01:37.713Z,2.77
2018-04-26T21:04:05.210Z,2.10
2018-04-26T21:06:32.659Z,2.50
2018-04-26T21:09:00.302Z,3.03
2018-04-26T21:11:27.878Z,3.37
2018-04-26T21:13:55.306Z,2.23
2018-04-26T21:16:22.730Z,2.77
2018-04-26T21:18:50.243Z,2.50
2018-04-26T21:21:17.677Z,2.47
2018-04-26T21:23:45.097Z,2.67
2018-04-26T21:26:12.534Z,2.40
2018-04-26T21:28:40.058Z,2.50
2018-04-26T21:31:07.420Z,2.17
2018-04-26T21:33:34.919Z,2.97
2018-04-26T21:36:02.433Z,3.10
2018-04-26T21:38:29.893Z,3.10
2018-04-26T21:40:57.326Z,3.20
2018-04-26T21:43:24.806Z,3.40
2018-04-26T21:45:52.240Z,2.93
2018-04-26T21:48:19.658Z,3.40
2018-04-26T21:50:52.640Z,3.23
2018-04-26T21:53:25.818Z,2.60
2018-04-26T21:55:59.085Z,2.80
2018-04-26T21:58:32.174Z,3.17
2018-04-26T22:01:05.249Z,2.93
2018-04-26T22:03:38.248Z,3.00
2018-04-26T22:06:05.732Z,3.23
2018-04-26T22:08:33.094Z,3.20
2018-04-26T22:11:01.553Z,4.13
2018-04-26T22:13:29.165Z,3.30
2018-04-26T22:15:57.682Z,2.93
2018-04-26T22:18:25.136Z,3.47
2018-04-26T22:20:52.766Z,3.40
2018-04-26T22:23:20.229Z,3.93
2018-04-26T22:25:47.709Z,3.20
2018-04-26T22:28:16.199Z,3.27
2018-04-26T22:30:43.854Z,3.63
2018-04-26T22:33:11.404Z,2.60
2018-04-26T22:35:38.830Z,3.40
2018-04-26T22:38:06.318Z,3.97
2018-04-26T22:40:33.776Z,3.30
2018-04-26T22:43:01.236Z,2.83
2018-04-26T22:45:28.661Z,3.40
2018-04-26T22:47:56.150Z,2.47
2018-04-26T22:50:23.566Z,3.30
2018-04-26T22:52:50.997Z,2.50
2018-04-26T22:55:18.415Z,2.37
2018-04-26T22:57:45.844Z,2.77
2018-04-26T23:00:13.322Z,2.90
2018-04-26T23:02:40.847Z,3.53
2018-04-26T23:05:08.258Z,3.83
2018-04-26T23:07:35.710Z,2.63
2018-04-26T23:10:03.143Z,3.13
2018-04-26T23:12:30.757Z,3.03
2018-04-26T23:14:58.176Z,3.27
2018-04-26T23:17:25.601Z,3.70
2018-04-26T23:19:53.107Z,2.80
2018-04-26T23:22:20.705Z,3.30
2018-04-26T23:24:48.174Z,3.07
2018-04-26T23:27:15.654Z,3.10
2018-04-26T23:29:43.161Z,3.10
2018-04-26T23:32:10.662Z,4.20
2018-04-26T23:34:38.096Z,3.40
2018-04-26T23:37:05.581Z,3.60
2018-04-26T23:39:33.033Z,4.13
2018-04-26T23:42:00.494Z,4.03
2018-04-26T23:44:27.921Z,3.63
2018-04-26T23:46:55.406Z,4.40
2018-04-26T23:49:22.843Z,3.10
2018-04-26T23:51:50.269Z,2.80
2018-04-26T23:54:17.768Z,3.60
2018-04-26T23:56:45.225Z,3.40
2018-04-26T23:59:12.681Z,3.83
